This demonstration page uses our WeatherBlox Daily Observations layout. Learn more.

Left ArrowRight Arrow

38.88101, -77.10428

Hourly Observations for November 23, 2018

Temp ( °F °C ) Dew Point ( °F °C ) Humidity (%) Winds ( mph kmh ) Pressure ( in mb ) Visibility ( mi km ) Precip ( " mm )
12:52 am 00:52 Cloudy 29 -1.7 4 -15.6 34 34 NE 9 15 30.63 1037 10 16.0934 0 0
1:52 am 01:52 Cloudy 29 -1.7 2 -16.7 31 31 NE 9 15 30.62 1037 10 16.0934 0 0
2:52 am 02:52 Mostly Cloudy 29 -1.7 4 -15.6 34 34 E 8 13 30.61 1037 10 16.0934 0 0
3:52 am 03:52 Cloudy 28 -2.2 4 -15.6 35 35 ENE 6 9 30.6 1036 10 16.0934 0 0
4:52 am 04:52 Cloudy 28 -2.2 4 -15.6 35 35 ENE 9 15 30.59 1036 10 16.0934 0 0
5:52 am 05:52 Cloudy 28 -2.2 6 -14.4 39 39 ENE 8 13 30.59 1036 10 16.0934 0 0
6:52 am 06:52 Cloudy 28 -2.2 6 -14.4 39 39 ENE 8 13 30.6 1036 10 16.0934 0 0
7:52 am 07:52 Cloudy 29 -1.7 7 -13.9 39 39 E 8 13 30.6 1036 10 16.0934 0 0
8:52 am 08:52 Cloudy 29 -1.7 9 -12.8 43 43 ESE 8 13 30.61 1037 10 16.0934 0 0
9:52 am 09:52 Cloudy 30 -1.1 9 -12.8 41 41 VRB 6 9 30.61 1037 10 16.0934 0 0
10:52 am 10:52 Cloudy 31 -0.6 9 -12.8 40 40 SSW 3 6 30.6 1036 10 16.0934 0 0
11:52 am 11:52 Cloudy 32 0 10 -12.2 40 40 S 7 11 30.57 1035 10 16.0934 0 0
12:52 pm 12:52 Cloudy 33 0.6 8 -13.3 35 35 S 5 7 30.53 1034 10 16.0934 0 0
1:52 pm 13:52 Cloudy 35 1.7 9 -12.8 34 34 VRB 7 11 30.5 1033 10 16.0934 0 0
2:52 pm 14:52 Cloudy 35 1.7 11 -11.7 37 37 S 6 9 30.48 1032 10 16.0934 0 0
3:52 pm 15:52 Cloudy 35 1.7 10 -12.2 35 35 SSE 6 9 30.48 1032 10 16.0934 0 0
4:52 pm 16:52 Cloudy 35 1.7 11 -11.7 37 37 S 7 11 30.47 1032 10 16.0934 0 0
5:52 pm 17:52 Cloudy 35 1.7 9 -12.8 34 34 S 8 13 30.46 1031 10 16.0934 0 0
6:52 pm 18:52 Cloudy 35 1.7 10 -12.2 35 35 S 8 13 30.45 1031 10 16.0934 0 0
7:52 pm 19:52 Cloudy 35 1.7 12 -11.1 38 38 SE 6 9 30.43 1030 10 16.0934 0 0
8:52 pm 20:52 Cloudy 35 1.7 15 -9.4 44 44 S 8 13 30.4 1030 10 16.0934 0 0
9:52 pm 21:52 Cloudy 34 1.1 14 -10 44 44 SSE 6 9 30.39 1029 10 16.0934 0 0
10:52 pm 22:52 Cloudy 33 0.6 13 -10.6 43 43 VRB 5 7 30.35 1028 10 16.0934 0 0
11:52 pm 23:52 Cloudy 33 0.6 17 -8.3 52 52 SSE 3 6 30.33 1027 10 16.0934 0 0

Powered by AerisWeather